Time;durP1;ratioP1;P1;durP2;ratioP2;P2;SDS_P1;SDS_P2;PMS_P1;PMS_P2;Temp;Humidity;BMP_temperature;BMP_pressure;BME280_temperature;BME280_humidity;BME280_pressure;Samples;Min_cycle;Max_cycle;Signal;HPM_P1;HPM_P2
2022/01/11 00:00:16;;;;;;;5.45;3.67;;;17.80;55.00;;;;;;4949300;28;20066;-68
2022/01/11 00:02:44;;;;;;;8.85;3.95;;;17.80;54.90;;;;;;4952391;28;20114;-68
2022/01/11 00:05:18;;;;;;;9.30;3.78;;;17.80;55.50;;;;;;4940283;28;20028;-68
2022/01/11 00:07:44;;;;;;;6.05;3.40;;;17.80;54.80;;;;;;4959776;28;20135;-68
2022/01/11 00:10:13;;;;;;;4.10;3.00;;;17.90;54.70;;;;;;4945785;28;20051;-69
2022/01/11 00:12:39;;;;;;;4.88;3.35;;;17.90;54.70;;;;;;4951763;28;20031;-68
2022/01/11 00:15:05;;;;;;;4.75;2.95;;;17.90;54.60;;;;;;4945215;28;20079;-68
2022/01/11 00:17:30;;;;;;;6.07;3.75;;;17.90;54.50;;;;;;4941296;28;20035;-67
2022/01/11 00:19:56;;;;;;;6.30;3.38;;;17.90;54.50;;;;;;4941651;28;20568;-68
2022/01/11 00:22:28;;;;;;;6.70;3.58;;;17.90;54.50;;;;;;4956070;28;20031;-68
2022/01/11 00:24:53;;;;;;;5.45;3.60;;;17.90;54.50;;;;;;4948569;28;20046;-68
2022/01/11 00:27:19;;;;;;;7.15;3.80;;;17.90;54.40;;;;;;4942968;28;20039;-68
2022/01/11 00:29:49;;;;;;;6.53;3.30;;;17.90;54.40;;;;;;4940030;28;20043;-68
2022/01/11 00:32:17;;;;;;;5.75;3.35;;;17.90;54.30;;;;;;4946326;28;20094;-67
2022/01/11 00:34:51;;;;;;;3.15;2.85;;;17.90;54.30;;;;;;4935336;28;20032;-67
2022/01/11 00:37:17;;;;;;;5.07;2.72;;;17.90;54.30;;;;;;4948283;28;20031;-67
2022/01/11 00:39:45;;;;;;;5.50;3.08;;;17.90;54.40;;;;;;4936685;28;20031;-64
2022/01/11 00:42:11;;;;;;;5.68;2.92;;;17.80;54.70;;;;;;4943563;28;20023;-68
2022/01/11 00:44:37;;;;;;;3.90;2.75;;;17.80;54.90;;;;;;4921681;28;20426;-68
2022/01/11 00:47:03;;;;;;;4.50;2.90;;;17.70;55.00;;;;;;4934041;28;20042;-68
2022/01/11 00:49:28;;;;;;;4.78;2.90;;;17.80;55.10;;;;;;4942925;28;20055;-67
2022/01/11 00:51:54;;;;;;;3.17;2.58;;;17.80;55.20;;;;;;4944311;28;20454;-68
2022/01/11 00:54:19;;;;;;;4.85;2.58;;;17.80;55.30;;;;;;4947503;28;20236;-66
2022/01/11 00:56:45;;;;;;;5.15;2.80;;;17.80;55.30;;;;;;4944961;28;20403;-64
2022/01/11 00:59:10;;;;;;;3.97;2.58;;;17.80;55.40;;;;;;4931854;28;20036;-62
2022/01/11 01:01:37;;;;;;;4.88;3.00;;;17.70;55.40;;;;;;4947229;28;20024;-67
2022/01/11 01:04:07;;;;;;;4.07;2.67;;;17.80;55.50;;;;;;4941631;28;20028;-68
2022/01/11 01:06:32;;;;;;;4.45;2.53;;;17.80;55.50;;;;;;4978005;28;20049;-67
2022/01/11 01:08:58;;;;;;;4.45;2.83;;;17.70;55.40;;;;;;4974680;28;20034;-67
2022/01/11 01:11:24;;;;;;;3.30;2.58;;;17.80;55.40;;;;;;4978491;28;20042;-64
2022/01/11 01:13:49;;;;;;;4.20;2.40;;;17.70;55.40;;;;;;4962975;28;20405;-67
2022/01/11 01:16:15;;;;;;;3.17;2.13;;;17.70;55.40;;;;;;4978318;28;20035;-68
2022/01/11 01:18:40;;;;;;;6.07;2.22;;;17.80;55.60;;;;;;4967580;28;20034;-68
2022/01/11 01:21:06;;;;;;;2.92;2.20;;;17.80;55.60;;;;;;4977932;28;20031;-68
2022/01/11 01:23:31;;;;;;;5.00;2.47;;;17.80;55.60;;;;;;4978913;28;20080;-68
2022/01/11 01:25:57;;;;;;;4.40;2.08;;;17.80;55.60;;;;;;4987006;28;20493;-64
2022/01/11 01:28:22;;;;;;;2.70;1.80;;;17.80;55.60;;;;;;4979679;28;20484;-66
2022/01/11 01:30:48;;;;;;;2.35;1.88;;;17.80;55.60;;;;;;4983050;28;20049;-67
2022/01/11 01:33:14;;;;;;;2.95;2.47;;;17.80;55.60;;;;;;4959891;28;20042;-68
2022/01/11 01:35:41;;;;;;;5.20;2.28;;;17.80;55.60;;;;;;4975577;28;20030;-68
2022/01/11 01:38:07;;;;;;;4.53;2.05;;;17.80;55.60;;;;;;4973055;28;20057;-64
2022/01/11 01:40:38;;;;;;;4.63;2.58;;;17.80;55.60;;;;;;4988717;28;20031;-68
2022/01/11 01:43:05;;;;;;;3.20;1.83;;;17.80;55.60;;;;;;4976618;28;20042;-65
2022/01/11 01:45:31;;;;;;;2.15;1.77;;;17.80;55.60;;;;;;4976609;28;20031;-67
2022/01/11 01:47:58;;;;;;;4.68;2.40;;;17.80;55.60;;;;;;4973002;28;20035;-65
2022/01/11 01:50:27;;;;;;;3.15;2.00;;;17.80;55.60;;;;;;4963293;28;20062;-67
2022/01/11 01:52:56;;;;;;;2.65;2.10;;;17.80;55.70;;;;;;4978060;28;20065;-67
2022/01/11 01:55:23;;;;;;;3.15;1.92;;;17.80;55.60;;;;;;4968892;28;20114;-68
2022/01/11 01:57:50;;;;;;;4.38;2.00;;;17.80;55.60;;;;;;4984689;28;20114;-67
2022/01/11 02:00:16;;;;;;;3.83;1.88;;;17.80;55.60;;;;;;4974828;28;20511;-67
2022/01/11 02:02:42;;;;;;;2.78;1.92;;;17.80;56.20;;;;;;4980844;28;20041;-68
2022/01/11 02:05:07;;;;;;;4.20;2.03;;;17.80;55.60;;;;;;4967851;28;20027;-68
2022/01/11 02:07:33;;;;;;;2.10;1.40;;;17.80;55.50;;;;;;4970995;28;20046;-67
2022/01/11 02:10:01;;;;;;;3.15;2.20;;;17.80;55.50;;;;;;4973070;28;20558;-68
2022/01/11 02:12:27;;;;;;;2.75;1.60;;;17.80;55.50;;;;;;4975395;28;20062;-68
2022/01/11 02:14:52;;;;;;;2.20;1.60;;;17.90;55.50;;;;;;4959906;28;20035;-67
2022/01/11 02:17:18;;;;;;;3.05;1.88;;;17.80;55.50;;;;;;4967853;28;20038;-64
2022/01/11 02:19:43;;;;;;;2.35;1.80;;;17.80;55.40;;;;;;4971982;28;20027;-67
2022/01/11 02:22:09;;;;;;;4.45;2.42;;;17.90;55.50;;;;;;4971199;28;20038;-64
2022/01/11 02:24:34;;;;;;;1.92;1.75;;;17.80;55.40;;;;;;4972846;28;20532;-67
2022/01/11 02:27:00;;;;;;;8.50;1.80;;;17.80;55.40;;;;;;4983878;28;20038;-67
2022/01/11 02:29:26;;;;;;;3.55;2.03;;;17.80;55.40;;;;;;4978781;28;20022;-62
2022/01/11 02:31:52;;;;;;;2.97;2.10;;;17.80;55.40;;;;;;4969834;28;20030;-63
2022/01/11 02:34:17;;;;;;;2.38;2.10;;;17.80;55.40;;;;;;4975183;28;20042;-68
2022/01/11 02:36:43;;;;;;;3.08;1.92;;;17.80;55.30;;;;;;4969991;28;21175;-67
2022/01/11 02:39:08;;;;;;;4.10;2.10;;;17.80;55.30;;;;;;4984406;28;20034;-69
2022/01/11 02:41:34;;;;;;;3.15;1.80;;;17.80;55.20;;;;;;4966630;28;20030;-67
2022/01/11 02:44:00;;;;;;;3.72;2.30;;;17.80;55.20;;;;;;4974386;28;20505;-67
2022/01/11 02:46:25;;;;;;;2.88;2.10;;;17.80;55.20;;;;;;4973162;28;20030;-65
2022/01/11 02:48:52;;;;;;;2.47;2.00;;;17.80;55.10;;;;;;4971010;28;20058;-64
2022/01/11 02:51:18;;;;;;;3.05;2.30;;;17.70;55.10;;;;;;4975389;28;20031;-68
2022/01/11 02:53:45;;;;;;;3.15;1.95;;;17.70;55.00;;;;;;4974517;28;20045;-68
2022/01/11 02:56:10;;;;;;;2.60;1.75;;;17.80;55.00;;;;;;4985569;28;20486;-64
2022/01/11 02:58:36;;;;;;;3.13;2.28;;;17.70;54.90;;;;;;4970133;28;20035;-67
2022/01/11 03:01:02;;;;;;;2.72;2.13;;;17.70;54.90;;;;;;4966748;28;20024;-64
2022/01/11 03:03:27;;;;;;;3.42;2.22;;;17.70;54.80;;;;;;4965051;28;20033;-65
2022/01/11 03:05:54;;;;;;;3.08;2.25;;;17.70;54.90;;;;;;4988277;28;20035;-68
2022/01/11 03:08:20;;;;;;;2.40;1.85;;;17.70;54.90;;;;;;4981267;28;20413;-68
2022/01/11 03:10:47;;;;;;;3.22;1.90;;;17.70;54.90;;;;;;4988023;28;20035;-68
2022/01/11 03:13:12;;;;;;;4.38;2.53;;;17.70;54.80;;;;;;4981571;28;20034;-68
2022/01/11 03:15:38;;;;;;;3.10;2.28;;;17.70;54.80;;;;;;4978409;28;20154;-67
2022/01/11 03:18:05;;;;;;;7.38;2.63;;;17.70;54.80;;;;;;4987349;28;20141;-66
2022/01/11 03:20:31;;;;;;;2.50;2.20;;;17.70;54.80;;;;;;4967174;28;20122;-67
2022/01/11 03:22:56;;;;;;;4.05;2.05;;;17.70;54.80;;;;;;4974031;28;20026;-67
2022/01/11 03:25:23;;;;;;;3.35;2.10;;;17.70;54.90;;;;;;4975714;28;20398;-67
2022/01/11 03:27:49;;;;;;;3.15;2.35;;;17.70;54.90;;;;;;4978473;28;20039;-67
2022/01/11 03:30:14;;;;;;;2.58;2.13;;;17.60;54.90;;;;;;4972114;28;20022;-67
2022/01/11 03:32:40;;;;;;;2.53;1.95;;;17.60;55.00;;;;;;4975072;28;20042;-68
2022/01/11 03:35:06;;;;;;;4.70;2.47;;;17.70;55.10;;;;;;4976016;28;20027;-67
2022/01/11 03:37:31;;;;;;;4.78;2.50;;;17.70;55.00;;;;;;4972673;28;20595;-67
2022/01/11 03:39:57;;;;;;;3.10;1.95;;;17.70;55.10;;;;;;4977958;28;20044;-68
2022/01/11 03:42:22;;;;;;;3.55;2.30;;;17.70;55.10;;;;;;4978810;28;20026;-67
2022/01/11 03:44:49;;;;;;;2.67;1.80;;;17.70;55.20;;;;;;4980996;28;20053;-67
2022/01/11 03:47:14;;;;;;;4.40;2.20;;;17.70;55.20;;;;;;4966852;28;20039;-68
2022/01/11 03:49:40;;;;;;;3.33;2.33;;;17.70;55.10;;;;;;4970839;28;20173;-67
2022/01/11 03:52:06;;;;;;;3.92;2.70;;;17.70;55.10;;;;;;4973475;28;20032;-68
2022/01/11 03:54:44;;;;;;;2.40;2.20;;;17.70;55.10;;;;;;4975323;28;20031;-68
2022/01/11 03:57:09;;;;;;;4.03;2.97;;;17.70;55.00;;;;;;4982655;28;20027;-68
2022/01/11 03:59:35;;;;;;;3.63;2.47;;;17.70;55.00;;;;;;4975353;28;20090;-62
2022/01/11 04:02:00;;;;;;;3.60;2.53;;;17.70;55.00;;;;;;4975455;28;20039;-67
2022/01/11 04:04:26;;;;;;;3.03;2.03;;;17.70;54.80;;;;;;4983651;28;20026;-67
2022/01/11 04:06:52;;;;;;;4.78;2.95;;;17.80;54.80;;;;;;4985527;28;20042;-64
2022/01/11 04:09:17;;;;;;;3.50;2.80;;;17.80;54.70;;;;;;4980356;28;20030;-66
2022/01/11 04:11:43;;;;;;;3.65;2.58;;;17.80;54.50;;;;;;4976361;28;20122;-63
2022/01/11 04:14:08;;;;;;;3.20;2.60;;;17.80;54.40;;;;;;4970004;28;20278;-65
2022/01/11 04:16:34;;;;;;;4.40;2.20;;;17.90;54.30;;;;;;4977860;28;20555;-62
2022/01/11 04:18:59;;;;;;;3.63;3.00;;;17.90;54.20;;;;;;4962848;28;20054;-63
2022/01/11 04:21:25;;;;;;;3.88;2.72;;;17.90;54.10;;;;;;4983538;28;20026;-68
2022/01/11 04:23:50;;;;;;;4.22;2.58;;;17.90;53.90;;;;;;4963831;28;20090;-67
2022/01/11 04:26:16;;;;;;;3.20;2.75;;;17.90;53.80;;;;;;4982831;28;20034;-68
2022/01/11 04:28:41;;;;;;;3.47;2.72;;;18.00;53.80;;;;;;4966728;28;20399;-67
2022/01/11 04:31:07;;;;;;;3.60;2.60;;;18.00;53.80;;;;;;4988350;28;20062;-68
2022/01/11 04:33:32;;;;;;;4.28;2.90;;;18.00;53.70;;;;;;4975435;28;20109;-63
2022/01/11 04:35:58;;;;;;;4.07;2.55;;;18.00;53.70;;;;;;4973908;28;20039;-68
2022/01/11 04:38:28;;;;;;;5.18;2.67;;;18.00;53.70;;;;;;4980825;28;20038;-67
2022/01/11 04:40:54;;;;;;;3.38;2.55;;;18.00;53.60;;;;;;4992531;28;20057;-67
2022/01/11 04:43:20;;;;;;;4.40;3.00;;;18.00;53.60;;;;;;4969313;28;20035;-68
2022/01/11 04:45:47;;;;;;;3.55;3.03;;;18.00;53.60;;;;;;4974399;28;20130;-67
2022/01/11 04:48:13;;;;;;;3.90;2.80;;;18.00;53.40;;;;;;4979492;28;20041;-68
2022/01/11 04:50:38;;;;;;;3.75;3.03;;;18.00;53.40;;;;;;4988438;28;20453;-64
2022/01/11 04:53:04;;;;;;;4.88;2.95;;;18.00;53.40;;;;;;4989221;28;20027;-68
2022/01/11 04:55:29;;;;;;;4.13;2.80;;;18.00;53.30;;;;;;4973993;28;20034;-67
2022/01/11 04:57:55;;;;;;;4.80;3.72;;;18.10;53.30;;;;;;4981288;28;20043;-67
2022/01/11 05:00:22;;;;;;;4.30;2.90;;;18.10;53.30;;;;;;4985315;28;20050;-68
2022/01/11 05:02:47;;;;;;;3.25;2.75;;;18.10;53.20;;;;;;4979264;28;20050;-68
2022/01/11 05:05:14;;;;;;;3.45;2.80;;;18.10;53.20;;;;;;4969660;28;20031;-68
2022/01/11 05:07:41;;;;;;;6.00;3.50;;;18.10;53.10;;;;;;4976352;28;20058;-67
2022/01/11 05:10:06;;;;;;;4.22;3.28;;;18.10;53.10;;;;;;4970950;28;20030;-63
2022/01/11 05:12:32;;;;;;;4.10;2.95;;;18.10;53.10;;;;;;4983319;28;20035;-68
2022/01/11 05:14:57;;;;;;;3.63;2.83;;;18.10;53.10;;;;;;4978711;28;20043;-63
2022/01/11 05:17:23;;;;;;;5.45;3.75;;;18.10;53.00;;;;;;4981402;28;20034;-67
2022/01/11 05:19:48;;;;;;;3.35;3.05;;;18.10;53.00;;;;;;4971581;28;20086;-64
2022/01/11 05:22:14;;;;;;;3.47;2.95;;;18.10;53.00;;;;;;4972247;28;20031;-68
2022/01/11 05:24:39;;;;;;;5.30;3.58;;;18.10;52.90;;;;;;4974659;28;20489;-67
2022/01/11 05:27:05;;;;;;;4.00;3.03;;;18.10;52.90;;;;;;4983152;28;20041;-67
2022/01/11 05:29:31;;;;;;;4.40;3.30;;;18.10;53.00;;;;;;4974090;28;20026;-67
2022/01/11 05:31:58;;;;;;;4.43;3.58;;;18.10;52.90;;;;;;4977586;28;20589;-67
2022/01/11 05:34:24;;;;;;;5.10;3.70;;;18.10;52.90;;;;;;4981040;28;20034;-67
2022/01/11 05:36:50;;;;;;;5.85;3.65;;;18.10;52.90;;;;;;4988723;28;20054;-69
2022/01/11 05:39:15;;;;;;;3.90;3.40;;;18.10;52.80;;;;;;4974443;28;20062;-67
2022/01/11 05:41:41;;;;;;;4.68;3.53;;;18.10;52.80;;;;;;4990918;28;20046;-64
2022/01/11 05:44:06;;;;;;;7.32;3.97;;;18.10;52.80;;;;;;4979114;28;20035;-64
2022/01/11 05:46:32;;;;;;;4.35;2.88;;;18.20;52.90;;;;;;4983784;28;20042;-61
2022/01/11 05:48:57;;;;;;;4.43;3.47;;;18.20;52.90;;;;;;4982318;28;20066;-68
2022/01/11 05:51:25;;;;;;;5.45;3.67;;;18.20;53.00;;;;;;4971743;28;20042;-70
2022/01/11 05:53:51;;;;;;;6.72;4.18;;;18.20;53.10;;;;;;4983698;28;20031;-69
2022/01/11 05:56:16;;;;;;;5.90;3.70;;;18.10;53.30;;;;;;4984520;28;20098;-69
2022/01/11 05:58:42;;;;;;;5.40;3.30;;;18.10;53.40;;;;;;4967567;28;20054;-64
2022/01/11 06:01:07;;;;;;;5.65;4.00;;;18.10;53.60;;;;;;4979244;28;20118;-68
2022/01/11 06:03:32;;;;;;;8.32;3.65;;;18.10;53.70;;;;;;4961651;28;20776;-67
2022/01/11 06:05:58;;;;;;;5.82;4.10;;;18.10;53.60;;;;;;4990742;28;20093;-67
2022/01/11 06:08:23;;;;;;;11.18;4.18;;;18.10;53.60;;;;;;4983689;28;20121;-62
2022/01/11 06:10:49;;;;;;;8.10;4.60;;;18.10;53.50;;;;;;4971132;28;20501;-63
2022/01/11 06:13:14;;;;;;;6.43;4.25;;;18.10;53.50;;;;;;4963635;28;20046;-67
2022/01/11 06:15:40;;;;;;;7.70;4.05;;;18.10;53.50;;;;;;4992063;28;20030;-67
2022/01/11 06:18:06;;;;;;;5.78;4.15;;;18.10;53.50;;;;;;4968857;28;20549;-68
2022/01/11 06:20:31;;;;;;;7.05;4.55;;;18.10;53.50;;;;;;4978317;28;20035;-67
2022/01/11 06:22:57;;;;;;;10.25;4.50;;;18.10;53.40;;;;;;4979866;28;20453;-67
2022/01/11 06:25:23;;;;;;;9.60;5.32;;;18.10;53.40;;;;;;4972643;28;20675;-67
2022/01/11 06:27:48;;;;;;;10.35;5.05;;;18.10;53.40;;;;;;4980464;28;20614;-69
2022/01/11 06:30:14;;;;;;;9.77;5.30;;;18.00;53.30;;;;;;4977456;28;20060;-68
2022/01/11 06:32:43;;;;;;;9.82;5.70;;;18.10;53.30;;;;;;4976910;28;20027;-65
2022/01/11 06:35:09;;;;;;;10.23;5.60;;;18.00;53.30;;;;;;4971481;28;20038;-67
2022/01/11 06:37:35;;;;;;;10.93;5.30;;;18.10;53.40;;;;;;4988421;28;20034;-66
2022/01/11 06:40:02;;;;;;;11.20;5.28;;;18.00;53.30;;;;;;4974124;28;20175;-59
2022/01/11 06:42:28;;;;;;;9.48;5.32;;;18.00;53.30;;;;;;4977579;28;20112;-60
2022/01/11 06:44:53;;;;;;;10.63;5.15;;;18.00;53.40;;;;;;4975018;28;20482;-63
2022/01/11 06:47:19;;;;;;;12.32;5.80;;;18.00;53.40;;;;;;4975634;28;20034;-63
2022/01/11 06:49:45;;;;;;;9.25;5.80;;;18.00;53.40;;;;;;4979110;28;20434;-67
2022/01/11 06:52:11;;;;;;;10.93;6.13;;;17.90;53.50;;;;;;4969932;28;20038;-66
2022/01/11 06:54:36;;;;;;;7.00;5.32;;;17.90;53.50;;;;;;4986094;28;20089;-63
2022/01/11 06:57:02;;;;;;;7.82;5.05;;;17.90;53.70;;;;;;4979145;28;20034;-62
2022/01/11 06:59:27;;;;;;;9.50;5.43;;;17.90;53.70;;;;;;4971979;28;20045;-66
2022/01/11 07:01:53;;;;;;;9.00;4.70;;;17.90;53.70;;;;;;4976968;28;20500;-68
2022/01/11 07:04:18;;;;;;;8.90;5.32;;;17.90;53.90;;;;;;4977386;28;20046;-62
2022/01/11 07:06:44;;;;;;;11.25;5.65;;;17.90;53.80;;;;;;4977797;28;20035;-71
2022/01/11 07:09:09;;;;;;;8.63;5.85;;;17.90;53.90;;;;;;4976399;28;20413;-66
2022/01/11 07:11:35;;;;;;;10.85;6.47;;;17.90;54.00;;;;;;4970113;28;20080;-64
2022/01/11 07:14:03;;;;;;;13.88;8.50;;;17.80;54.00;;;;;;4975443;28;20046;-63
2022/01/11 07:16:29;;;;;;;18.48;9.63;;;17.80;54.10;;;;;;4966161;28;20030;-69
2022/01/11 07:18:54;;;;;;;25.65;9.98;;;17.80;54.10;;;;;;4978772;28;20792;-69
2022/01/11 07:21:20;;;;;;;24.67;12.05;;;17.80;54.30;;;;;;4976849;28;20031;-66
2022/01/11 07:23:45;;;;;;;32.33;12.02;;;17.80;54.50;;;;;;4982940;28;20046;-69
2022/01/11 07:26:11;;;;;;;23.38;11.10;;;17.80;54.60;;;;;;4989350;28;20401;-66
2022/01/11 07:28:36;;;;;;;29.00;11.85;;;17.80;54.70;;;;;;4972652;28;20034;-68
2022/01/11 07:31:02;;;;;;;24.92;11.73;;;17.80;54.70;;;;;;4964063;28;20126;-67
2022/01/11 07:33:27;;;;;;;23.88;10.35;;;17.80;54.80;;;;;;4976600;28;20039;-67
2022/01/11 07:35:53;;;;;;;20.52;10.63;;;17.80;54.90;;;;;;4963312;28;20042;-67
2022/01/11 07:38:18;;;;;;;19.88;10.27;;;17.70;54.90;;;;;;4982733;28;20032;-66
2022/01/11 07:40:44;;;;;;;18.40;9.85;;;17.70;54.90;;;;;;4979690;28;20030;-67
2022/01/11 07:43:10;;;;;;;26.88;13.75;;;17.70;54.90;;;;;;4976880;28;20030;-67
2022/01/11 07:45:35;;;;;;;33.17;15.05;;;17.80;55.10;;;;;;4986364;28;20524;-67
2022/01/11 07:48:00;;;;;;;36.25;16.75;;;17.80;55.40;;;;;;4978086;28;20421;-67
2022/01/11 07:50:26;;;;;;;32.53;14.77;;;17.80;55.60;;;;;;4977976;28;20074;-67
2022/01/11 07:52:52;;;;;;;30.58;14.93;;;17.80;55.70;;;;;;4981226;28;20038;-67
2022/01/11 07:55:18;;;;;;;32.08;14.80;;;17.80;55.80;;;;;;4974985;28;20027;-68
2022/01/11 07:57:44;;;;;;;37.88;15.90;;;17.80;55.80;;;;;;4951764;28;20098;-67
2022/01/11 08:00:10;;;;;;;30.45;14.40;;;17.80;55.80;;;;;;4976669;28;20494;-67
2022/01/11 08:02:35;;;;;;;34.92;14.68;;;17.80;55.80;;;;;;4975677;28;20068;-67
2022/01/11 08:05:01;;;;;;;28.73;14.27;;;17.80;55.80;;;;;;4965621;28;20031;-67
2022/01/11 08:07:26;;;;;;;30.63;15.02;;;17.80;55.80;;;;;;4973177;28;20121;-68
2022/01/11 08:09:52;;;;;;;34.28;15.18;;;17.80;55.70;;;;;;4981015;28;20122;-67
2022/01/11 08:12:17;;;;;;;28.55;13.70;;;17.80;55.70;;;;;;4973135;28;20092;-68
2022/01/11 08:14:43;;;;;;;30.88;13.82;;;17.80;55.70;;;;;;4980236;28;20050;-67
2022/01/11 08:17:08;;;;;;;25.73;14.27;;;17.80;55.60;;;;;;4975041;28;20035;-68
2022/01/11 08:19:34;;;;;;;22.73;12.52;;;17.80;55.60;;;;;;4987522;28;20045;-67
2022/01/11 08:21:59;;;;;;;26.25;13.55;;;17.80;55.60;;;;;;4982593;28;20042;-68
2022/01/11 08:24:25;;;;;;;25.90;13.95;;;17.80;55.60;;;;;;4985125;28;20028;-67
2022/01/11 08:26:51;;;;;;;25.88;13.30;;;17.80;55.60;;;;;;4981790;28;20066;-67
2022/01/11 08:29:18;;;;;;;26.90;13.05;;;17.80;55.80;;;;;;4972661;28;20027;-67
2022/01/11 08:31:44;;;;;;;23.05;13.38;;;17.80;55.50;;;;;;4986503;28;20023;-68
2022/01/11 08:34:13;;;;;;;23.65;13.25;;;17.70;55.40;;;;;;4982893;28;20505;-68
2022/01/11 08:36:39;;;;;;;23.88;13.00;;;17.80;55.50;;;;;;4971724;28;20047;-67
2022/01/11 08:39:04;;;;;;;24.20;12.40;;;17.70;55.30;;;;;;4975739;28;21429;-67
2022/01/11 08:41:30;;;;;;;24.10;11.77;;;17.80;55.40;;;;;;4968292;28;20034;-68
2022/01/11 08:43:55;;;;;;;23.17;12.00;;;17.70;55.30;;;;;;4971695;28;20019;-67
2022/01/11 08:46:21;;;;;;;28.45;12.10;;;17.80;55.30;;;;;;4988464;28;20408;-67
2022/01/11 08:48:46;;;;;;;23.95;11.38;;;17.80;55.20;;;;;;4969883;28;20046;-67
2022/01/11 08:51:12;;;;;;;18.35;11.52;;;17.80;55.10;;;;;;4976891;28;20045;-68
2022/01/11 08:53:37;;;;;;;18.52;11.57;;;17.80;55.00;;;;;;4972687;28;20060;-67
2022/01/11 08:56:05;;;;;;;20.67;11.30;;;17.80;54.90;;;;;;4974420;28;20042;-67
2022/01/11 08:58:30;;;;;;;19.50;11.32;;;17.80;54.80;;;;;;4977912;28;20039;-67
2022/01/11 09:00:56;;;;;;;20.27;11.15;;;17.80;54.70;;;;;;4976706;28;20038;-67
2022/01/11 09:03:23;;;;;;;22.33;10.50;;;17.80;54.50;;;;;;4974881;28;20382;-67
2022/01/11 09:05:50;;;;;;;21.23;11.88;;;17.90;54.50;;;;;;4970572;28;20039;-67
2022/01/11 09:08:15;;;;;;;21.42;11.30;;;17.90;54.40;;;;;;4972925;28;20049;-67
2022/01/11 09:10:41;;;;;;;21.60;11.50;;;17.90;54.30;;;;;;4973895;28;20031;-68
2022/01/11 09:13:06;;;;;;;18.73;11.15;;;17.90;54.10;;;;;;4985464;28;20035;-67
2022/01/11 09:15:32;;;;;;;20.77;10.65;;;17.90;54.10;;;;;;4983263;28;20041;-67
2022/01/11 09:17:58;;;;;;;19.55;11.32;;;17.90;54.00;;;;;;4991575;28;20392;-67
2022/01/11 09:20:23;;;;;;;17.17;10.55;;;17.90;53.90;;;;;;4991399;28;20090;-67
2022/01/11 09:22:49;;;;;;;21.15;10.60;;;18.00;53.90;;;;;;4978837;28;20089;-67
2022/01/11 09:25:15;;;;;;;19.08;11.48;;;17.90;53.90;;;;;;4975805;28;20031;-68
2022/01/11 09:27:41;;;;;;;17.05;9.88;;;18.00;54.50;;;;;;4972543;28;20494;-68
2022/01/11 09:30:08;;;;;;;17.00;10.43;;;18.00;53.80;;;;;;4984911;28;20038;-66
2022/01/11 09:32:34;;;;;;;15.52;10.68;;;18.00;53.80;;;;;;4972784;28;20043;-68
2022/01/11 09:35:00;;;;;;;18.60;10.48;;;18.00;53.70;;;;;;4977352;28;20034;-67
2022/01/11 09:37:26;;;;;;;18.10;10.57;;;18.00;53.70;;;;;;4979132;28;20037;-67
2022/01/11 09:39:51;;;;;;;18.95;10.73;;;18.00;53.60;;;;;;4986806;28;20049;-67
2022/01/11 09:42:17;;;;;;;18.40;10.75;;;18.00;53.60;;;;;;4986660;28;20039;-68
2022/01/11 09:44:42;;;;;;;20.95;10.82;;;17.90;53.60;;;;;;4975144;28;20490;-68
2022/01/11 09:47:09;;;;;;;17.67;10.30;;;18.00;53.60;;;;;;4982482;28;20034;-66
2022/01/11 09:49:35;;;;;;;16.27;9.63;;;18.00;53.60;;;;;;4981253;28;20027;-67
2022/01/11 09:52:05;;;;;;;13.75;9.38;;;17.90;53.50;;;;;;4986143;28;20045;-71
2022/01/11 09:54:30;;;;;;;16.80;9.23;;;18.00;53.50;;;;;;4981183;28;20135;-68
2022/01/11 09:56:56;;;;;;;16.60;10.27;;;18.00;53.60;;;;;;4989104;28;20027;-68
2022/01/11 09:59:21;;;;;;;13.70;9.27;;;17.90;53.50;;;;;;4983395;28;20066;-68
2022/01/11 10:01:47;;;;;;;17.48;9.80;;;18.00;53.60;;;;;;4983420;28;20494;-67
2022/01/11 10:04:13;;;;;;;17.65;9.98;;;18.00;53.50;;;;;;4980978;28;20043;-67
2022/01/11 10:06:42;;;;;;;16.98;10.35;;;18.00;53.40;;;;;;4982599;28;20111;-69
2022/01/11 10:09:18;;;;;;;14.55;9.30;;;18.00;53.40;;;;;;4966211;28;20114;-68
2022/01/11 10:12:02;;;;;;;17.35;9.68;;;17.90;53.40;;;;;;4959851;28;20027;-68
2022/01/11 10:14:31;;;;;;;15.75;9.07;;;17.90;53.30;;;;;;4975340;28;20150;-67
2022/01/11 10:17:05;;;;;;;13.55;9.10;;;17.90;53.30;;;;;;4981096;28;20068;-68
2022/01/11 10:19:30;;;;;;;15.05;9.15;;;17.90;53.30;;;;;;4973171;28;20061;-68
2022/01/11 10:21:56;;;;;;;15.13;9.02;;;18.00;53.30;;;;;;4974035;28;20078;-68
2022/01/11 10:24:33;;;;;;;18.00;10.05;;;18.00;53.30;;;;;;4970427;28;20027;-68
2022/01/11 10:27:01;;;;;;;16.40;9.52;;;18.00;53.20;;;;;;4973465;28;20038;-68
2022/01/11 10:29:27;;;;;;;13.25;9.00;;;18.00;53.20;;;;;;4978566;28;20030;-68
2022/01/11 10:31:53;;;;;;;15.15;9.48;;;18.00;53.20;;;;;;4978780;28;20406;-67
2022/01/11 10:34:26;;;;;;;15.57;8.82;;;18.00;53.10;;;;;;4982379;28;20031;-68
2022/01/11 10:36:52;;;;;;;13.85;9.15;;;18.00;53.10;;;;;;4973214;28;20038;-68
2022/01/11 10:39:37;;;;;;;14.65;8.90;;;18.00;53.20;;;;;;4978599;28;20027;-68
2022/01/11 10:42:03;;;;;;;13.50;7.90;;;17.90;53.30;;;;;;4981851;28;20054;-68
2022/01/11 10:44:44;;;;;;;14.02;8.32;;;17.90;53.40;;;;;;4979670;28;20408;-67
2022/01/11 10:47:09;;;;;;;14.07;8.40;;;17.90;53.70;;;;;;4973303;28;20038;-68
2022/01/11 10:49:36;;;;;;;13.43;8.50;;;17.90;53.70;;;;;;4985076;28;20033;-68
2022/01/11 10:52:18;;;;;;;13.60;7.35;;;17.80;53.80;;;;;;4985940;28;20469;-66
2022/01/11 10:54:44;;;;;;;14.55;8.48;;;17.80;54.00;;;;;;4968272;28;20114;-68
2022/01/11 10:57:20;;;;;;;13.95;8.63;;;17.80;54.00;;;;;;4985591;28;20113;-68
2022/01/11 11:00:16;;;;;;;13.20;8.75;;;17.80;54.10;;;;;;4972252;28;20043;-65
2022/01/11 11:02:43;;;;;;;13.35;7.85;;;17.80;54.20;;;;;;4958808;28;20106;-67
2022/01/11 11:05:13;;;;;;;13.07;7.82;;;17.80;54.30;;;;;;4963887;28;20031;-68
2022/01/11 11:07:38;;;;;;;12.27;7.50;;;17.90;54.60;;;;;;4968776;28;20061;-68
2022/01/11 11:10:04;;;;;;;13.73;8.63;;;17.90;54.70;;;;;;4956147;28;20498;-68
2022/01/11 11:12:29;;;;;;;14.43;7.57;;;17.90;54.90;;;;;;4967522;28;20034;-68
2022/01/11 11:14:56;;;;;;;14.10;8.25;;;17.90;54.90;;;;;;4978361;28;20033;-69
2022/01/11 11:17:26;;;;;;;11.93;7.57;;;17.90;55.10;;;;;;4979314;28;20030;-69
2022/01/11 11:20:11;;;;;;;10.55;7.07;;;17.90;55.20;;;;;;4968377;28;20037;-69
2022/01/11 11:22:37;;;;;;;12.05;7.03;;;17.90;55.10;;;;;;4961740;28;20756;-69
2022/01/11 11:25:03;;;;;;;11.98;6.80;;;17.90;55.20;;;;;;4976685;28;20030;-69
2022/01/11 11:27:31;;;;;;;13.35;7.65;;;17.90;55.10;;;;;;4974198;28;20050;-69
2022/01/11 11:29:57;;;;;;;9.93;6.05;;;17.90;55.20;;;;;;4974762;28;20493;-68
2022/01/11 11:32:22;;;;;;;11.82;7.70;;;17.90;55.20;;;;;;4975449;28;20026;-68
2022/01/11 11:34:51;;;;;;;12.32;6.95;;;17.90;55.20;;;;;;4980489;28;20489;-67
2022/01/11 11:37:31;;;;;;;11.88;7.28;;;17.90;55.20;;;;;;4978747;28;20173;-68
2022/01/11 11:40:07;;;;;;;9.60;6.32;;;17.90;55.20;;;;;;4971276;28;20501;-68
2022/01/11 11:42:33;;;;;;;9.55;6.90;;;18.00;55.20;;;;;;4978137;28;20031;-69
2022/01/11 11:44:59;;;;;;;11.25;6.88;;;18.00;55.20;;;;;;4960077;28;20031;-68
2022/01/11 11:47:30;;;;;;;11.35;7.32;;;18.00;55.10;;;;;;4974673;28;20026;-68
2022/01/11 11:49:56;;;;;;;12.25;6.63;;;18.00;55.10;;;;;;4980337;28;20064;-68
2022/01/11 11:52:51;;;;;;;11.65;7.00;;;17.90;55.00;;;;;;4975387;28;20639;-68
2022/01/11 11:55:25;;;;;;;8.73;6.85;;;18.00;55.10;;;;;;4982632;28;20038;-68
2022/01/11 11:57:58;;;;;;;9.85;6.93;;;18.00;55.00;;;;;;4990608;28;20557;-69
2022/01/11 12:00:25;;;;;;;11.18;6.28;;;17.90;54.90;;;;;;4979143;28;20094;-71
2022/01/11 12:02:52;;;;;;;9.13;6.57;;;17.90;54.90;;;;;;4986966;28;20502;-69
2022/01/11 12:05:37;;;;;;;11.65;6.53;;;17.90;54.90;;;;;;4985050;28;20034;-69
2022/01/11 12:08:33;;;;;;;10.73;6.45;;;18.00;54.90;;;;;;4989113;28;20042;-69
2022/01/11 12:11:16;;;;;;;15.70;8.52;;;18.00;54.90;;;;;;4969563;28;20042;-69
2022/01/11 12:13:41;;;;;;;12.65;8.25;;;17.90;54.90;;;;;;4976587;28;20027;-72
2022/01/11 12:16:25;;;;;;;13.02;8.63;;;18.00;55.00;;;;;;4982638;28;20520;-69
2022/01/11 12:18:52;;;;;;;15.65;8.50;;;18.00;55.00;;;;;;4977773;28;21495;-68
2022/01/11 12:21:17;;;;;;;14.15;9.10;;;18.00;55.10;;;;;;4976644;28;20030;-69
2022/01/11 12:23:48;;;;;;;16.65;8.77;;;18.00;55.00;;;;;;4972522;28;20026;-69
2022/01/11 12:26:19;;;;;;;13.57;9.45;;;18.00;54.90;;;;;;4979477;28;20089;-69
2022/01/11 12:28:46;;;;;;;11.65;8.05;;;18.10;55.00;;;;;;4983922;28;20049;-69
2022/01/11 12:31:28;;;;;;;13.48;7.78;;;18.10;54.90;;;;;;4984265;28;20030;-68
2022/01/11 12:33:54;;;;;;;14.13;8.75;;;18.10;54.80;;;;;;4979467;28;22156;-68
2022/01/11 12:36:19;;;;;;;11.52;8.20;;;18.10;54.70;;;;;;4984390;28;20041;-69
2022/01/11 12:39:14;;;;;;;16.52;8.45;;;18.10;54.60;;;;;;4984618;28;20452;-69